createdAt,value
2022-08-03T00:01:49.356Z,6.75
2022-08-03T00:04:16.352Z,4.57
2022-08-03T00:06:43.001Z,4.10
2022-08-03T00:09:10.128Z,4.00
2022-08-03T00:11:37.169Z,5.00
2022-08-03T00:14:07.154Z,5.80
2022-08-03T00:16:34.183Z,4.13
2022-08-03T00:19:01.489Z,3.88
2022-08-03T00:21:28.817Z,3.25
2022-08-03T00:23:55.688Z,4.22
2022-08-03T00:26:22.518Z,3.75
2022-08-03T00:28:50.041Z,3.88
2022-08-03T00:31:22.258Z,3.85
2022-08-03T00:34:04.205Z,3.95
2022-08-03T00:36:30.976Z,4.50
2022-08-03T00:38:57.593Z,4.13
2022-08-03T00:41:24.337Z,4.80
2022-08-03T00:43:51.160Z,4.35
2022-08-03T00:46:21.793Z,4.70
2022-08-03T00:48:50.508Z,4.32
2022-08-03T00:51:18.033Z,4.57
2022-08-03T00:53:45.768Z,4.60
2022-08-03T00:56:16.958Z,5.45
2022-08-03T00:58:45.329Z,4.53
2022-08-03T01:01:12.771Z,4.85
2022-08-03T01:03:39.930Z,4.97
2022-08-03T01:06:18.506Z,4.78
2022-08-03T01:08:45.027Z,5.20
2022-08-03T01:11:32.292Z,5.13
2022-08-03T01:14:18.949Z,5.03
2022-08-03T01:16:57.006Z,4.85
2022-08-03T01:19:35.461Z,5.00
2022-08-03T01:22:11.020Z,4.82
2022-08-03T01:25:05.387Z,5.43
2022-08-03T01:27:44.199Z,5.00
2022-08-03T01:30:12.581Z,4.25
2022-08-03T01:33:00.804Z,5.10
2022-08-03T01:35:38.536Z,4.75
2022-08-03T01:38:22.283Z,4.88
2022-08-03T01:40:53.961Z,4.97
2022-08-03T01:44:27.005Z,5.50
2022-08-03T01:46:15.838Z,5.00
2022-08-03T01:48:44.681Z,5.40
2022-08-03T01:51:12.360Z,5.10
2022-08-03T01:53:42.848Z,4.85
2022-08-03T01:56:10.812Z,5.00
2022-08-03T01:58:39.699Z,5.00
2022-08-03T02:01:09.063Z,4.82
2022-08-03T02:03:58.064Z,4.80
2022-08-03T02:07:02.231Z,5.00
2022-08-03T02:09:19.921Z,5.55
2022-08-03T02:11:47.564Z,5.38
2022-08-03T02:14:16.044Z,4.43
2022-08-03T02:16:44.730Z,4.43
2022-08-03T02:19:11.967Z,4.80
2022-08-03T02:21:56.829Z,4.60
2022-08-03T02:24:26.546Z,5.00
2022-08-03T02:26:56.339Z,4.60
2022-08-03T02:29:39.349Z,4.13
2022-08-03T02:32:12.607Z,4.38
2022-08-03T02:34:42.411Z,4.95
2022-08-03T02:37:10.488Z,3.88
2022-08-03T02:39:39.819Z,4.20
2022-08-03T02:42:09.548Z,4.35
2022-08-03T02:44:40.434Z,3.70
2022-08-03T02:47:10.940Z,4.72
2022-08-03T02:49:50.962Z,5.00
2022-08-03T02:52:21.611Z,5.10
2022-08-03T02:54:51.218Z,4.20
2022-08-03T02:57:21.010Z,4.20
2022-08-03T02:59:47.777Z,4.18
2022-08-03T03:02:16.765Z,4.55
2022-08-03T03:05:51.792Z,4.60
2022-08-03T03:07:35.368Z,4.97
2022-08-03T03:10:22.053Z,4.43
2022-08-03T03:12:51.800Z,4.40
2022-08-03T03:15:18.966Z,4.63
2022-08-03T03:17:46.076Z,4.63
2022-08-03T03:20:29.741Z,4.35
2022-08-03T03:23:00.112Z,4.63
2022-08-03T03:25:28.160Z,4.68
2022-08-03T03:27:54.922Z,4.32
2022-08-03T03:30:25.048Z,4.88
2022-08-03T03:32:52.639Z,4.57
2022-08-03T03:35:19.784Z,4.18
2022-08-03T03:37:46.427Z,4.38
2022-08-03T03:40:14.449Z,4.93
2022-08-03T03:42:41.297Z,4.70
2022-08-03T03:45:08.855Z,4.68
2022-08-03T03:47:36.103Z,4.68
2022-08-03T03:50:04.648Z,4.78
2022-08-03T03:52:32.529Z,4.30
2022-08-03T03:55:01.302Z,4.93
2022-08-03T03:57:28.766Z,4.93
2022-08-03T03:59:55.348Z,4.40
2022-08-03T04:02:21.971Z,5.18
2022-08-03T04:05:07.138Z,4.28
2022-08-03T04:08:05.017Z,4.53
2022-08-03T04:10:52.853Z,4.22
2022-08-03T04:13:21.974Z,5.03
2022-08-03T04:15:50.580Z,4.68
2022-08-03T04:18:19.087Z,4.60
2022-08-03T04:20:48.813Z,4.65
2022-08-03T04:23:21.109Z,4.32
2022-08-03T04:25:49.972Z,4.90
2022-08-03T04:28:30.530Z,4.35
2022-08-03T04:30:58.993Z,4.35
2022-08-03T04:33:29.444Z,4.38
2022-08-03T04:36:01.526Z,4.70
2022-08-03T04:38:35.445Z,4.10
2022-08-03T04:41:02.378Z,4.50
2022-08-03T04:43:31.240Z,4.63
2022-08-03T04:45:59.321Z,4.82
2022-08-03T04:48:26.551Z,5.13
2022-08-03T04:50:54.553Z,4.68
2022-08-03T04:53:21.354Z,4.85
2022-08-03T04:55:48.356Z,5.60
2022-08-03T04:58:15.082Z,5.25
2022-08-03T05:00:42.315Z,5.47
2022-08-03T05:03:19.612Z,5.00
2022-08-03T05:05:52.361Z,5.10
2022-08-03T05:08:20.661Z,4.60
2022-08-03T05:10:55.637Z,4.80
2022-08-03T05:13:25.760Z,5.07
2022-08-03T05:15:52.605Z,4.53
2022-08-03T05:18:19.301Z,4.88
2022-08-03T05:20:45.946Z,4.45
2022-08-03T05:23:12.590Z,4.32
2022-08-03T05:25:39.367Z,4.80
2022-08-03T05:28:06.090Z,4.82
2022-08-03T05:30:33.797Z,4.50
2022-08-03T05:33:02.438Z,4.88
2022-08-03T05:36:02.676Z,4.88
2022-08-03T05:38:24.306Z,4.38
2022-08-03T05:40:57.460Z,5.18
2022-08-03T05:43:43.390Z,5.03
2022-08-03T05:46:13.013Z,4.53
2022-08-03T05:48:41.326Z,4.32
2022-08-03T05:51:11.710Z,4.40
2022-08-03T05:53:42.290Z,3.33
2022-08-03T05:56:15.361Z,3.40
2022-08-03T05:58:47.128Z,3.67
2022-08-03T06:01:15.310Z,3.22
2022-08-03T06:03:42.059Z,3.90
2022-08-03T06:06:08.846Z,4.15
2022-08-03T06:08:35.495Z,3.72
2022-08-03T06:11:02.176Z,3.30
2022-08-03T06:13:28.807Z,3.50
2022-08-03T06:15:55.363Z,3.35
2022-08-03T06:18:21.984Z,3.28
2022-08-03T06:20:49.468Z,3.03
2022-08-03T06:23:18.523Z,2.97
2022-08-03T06:25:45.457Z,4.40
2022-08-03T06:28:42.567Z,2.95
2022-08-03T06:31:01.187Z,3.05
2022-08-03T06:34:31.010Z,2.85
2022-08-03T06:36:15.173Z,3.00
2022-08-03T06:38:41.782Z,3.00
2022-08-03T06:41:08.487Z,2.60
2022-08-03T06:43:37.643Z,2.40
2022-08-03T06:46:05.581Z,2.30
2022-08-03T06:48:32.552Z,2.10
2022-08-03T06:50:59.395Z,2.05
2022-08-03T06:53:26.319Z,2.03
2022-08-03T06:55:55.011Z,1.80
2022-08-03T06:58:22.550Z,1.85
2022-08-03T07:00:49.401Z,1.80
2022-08-03T07:03:16.395Z,1.95
2022-08-03T07:05:46.725Z,1.92
2022-08-03T07:08:14.417Z,2.60
2022-08-03T07:10:40.994Z,1.90
2022-08-03T07:13:07.712Z,2.10
2022-08-03T07:15:54.116Z,2.00
2022-08-03T07:18:27.636Z,2.13
2022-08-03T07:20:57.757Z,2.10
2022-08-03T07:23:25.532Z,2.85
2022-08-03T07:25:52.250Z,2.28
2022-08-03T07:28:19.022Z,2.40
2022-08-03T07:30:45.661Z,2.20
2022-08-03T07:33:12.282Z,1.80
2022-08-03T07:35:39.307Z,1.95
2022-08-03T07:38:05.968Z,1.60
2022-08-03T07:40:32.594Z,1.70
2022-08-03T07:42:59.855Z,1.85
2022-08-03T07:45:26.759Z,2.00
2022-08-03T07:47:54.223Z,1.70
2022-08-03T07:50:22.048Z,1.90
2022-08-03T07:52:50.358Z,1.70
2022-08-03T07:55:19.529Z,1.83
2022-08-03T07:57:46.316Z,2.20
2022-08-03T08:00:16.979Z,1.75
2022-08-03T08:02:44.514Z,1.73
2022-08-03T08:05:12.598Z,1.80
2022-08-03T08:07:39.789Z,1.55
2022-08-03T08:10:08.412Z,1.90
2022-08-03T08:12:35.063Z,1.70
2022-08-03T08:15:02.157Z,2.00
2022-08-03T08:17:28.816Z,1.85
2022-08-03T08:19:55.448Z,1.85
2022-08-03T08:22:29.917Z,2.60
2022-08-03T08:24:58.541Z,1.70
2022-08-03T08:27:25.917Z,1.65
2022-08-03T08:29:56.364Z,1.75
2022-08-03T08:32:25.624Z,1.70
2022-08-03T08:34:52.226Z,1.55
2022-08-03T08:37:18.798Z,1.90
2022-08-03T08:39:45.374Z,1.70
2022-08-03T08:42:12.177Z,1.42
2022-08-03T08:44:39.293Z,1.50
2022-08-03T08:47:08.119Z,1.60
2022-08-03T08:49:39.201Z,1.63
2022-08-03T08:52:25.286Z,1.27
2022-08-03T08:55:05.215Z,1.35
2022-08-03T08:57:44.327Z,1.63
2022-08-03T09:00:14.957Z,1.60
2022-08-03T09:02:43.192Z,1.50
2022-08-03T09:05:16.137Z,1.27
2022-08-03T09:07:44.205Z,1.48
2022-08-03T09:10:13.790Z,1.55
2022-08-03T09:12:46.009Z,1.40
2022-08-03T09:15:28.613Z,1.30
2022-08-03T09:17:57.012Z,1.70
2022-08-03T09:20:25.649Z,1.60
2022-08-03T09:23:51.914Z,1.60
2022-08-03T09:25:59.988Z,1.27
2022-08-03T09:28:57.226Z,1.25
2022-08-03T09:31:43.645Z,1.00
2022-08-03T09:34:12.738Z,1.63
2022-08-03T09:36:40.769Z,1.10
2022-08-03T09:39:11.391Z,1.30
2022-08-03T09:41:47.380Z,1.30
2022-08-03T09:44:24.567Z,1.20
2022-08-03T09:46:56.612Z,1.35
2022-08-03T09:49:24.386Z,1.20
2022-08-03T09:52:31.765Z,1.50
2022-08-03T09:54:38.752Z,1.45
2022-08-03T09:57:05.428Z,1.40
2022-08-03T09:59:33.727Z,1.40
2022-08-03T10:02:00.881Z,1.70
2022-08-03T10:04:27.614Z,1.50
2022-08-03T10:07:10.821Z,1.65
2022-08-03T10:09:38.118Z,1.42
2022-08-03T10:12:12.731Z,1.40
2022-08-03T10:14:41.981Z,1.42
2022-08-03T10:17:09.778Z,1.25
2022-08-03T10:19:36.615Z,1.48
2022-08-03T10:22:29.744Z,1.30
2022-08-03T10:25:02.558Z,1.45
2022-08-03T10:27:34.306Z,1.42
2022-08-03T10:30:05.466Z,1.35
2022-08-03T10:32:38.321Z,1.08
2022-08-03T10:35:20.971Z,1.40
2022-08-03T10:38:10.435Z,1.30
2022-08-03T10:40:58.676Z,1.60
2022-08-03T10:43:49.194Z,1.40
2022-08-03T10:46:19.512Z,1.50
2022-08-03T10:48:48.669Z,1.60
2022-08-03T10:51:16.170Z,1.30
2022-08-03T10:53:54.986Z,2.03
2022-08-03T10:56:54.254Z,1.35
2022-08-03T10:59:46.161Z,1.25
2022-08-03T11:02:15.774Z,1.20
2022-08-03T11:04:42.906Z,1.55
2022-08-03T11:07:25.704Z,1.50
2022-08-03T11:09:54.404Z,1.13
2022-08-03T11:12:30.194Z,1.40
2022-08-03T11:15:04.571Z,1.40
2022-08-03T11:17:33.985Z,1.40
2022-08-03T11:20:13.653Z,1.40
2022-08-03T11:22:54.598Z,1.40
2022-08-03T11:25:54.054Z,1.60
2022-08-03T11:28:28.924Z,1.20
2022-08-03T11:30:55.626Z,1.50
2022-08-03T11:33:31.850Z,1.40
2022-08-03T11:36:00.533Z,1.92
2022-08-03T11:38:27.181Z,1.52
2022-08-03T11:40:54.539Z,1.42
2022-08-03T11:43:31.337Z,1.70
2022-08-03T11:46:06.982Z,1.50
2022-08-03T11:48:45.414Z,1.30
2022-08-03T11:51:20.845Z,1.42
2022-08-03T11:53:51.118Z,1.58
2022-08-03T11:56:17.713Z,1.40
2022-08-03T11:59:10.730Z,1.40
2022-08-03T12:01:36.233Z,1.65
2022-08-03T12:04:04.922Z,1.50
2022-08-03T12:06:31.572Z,1.50
2022-08-03T12:08:58.162Z,1.30
2022-08-03T12:11:24.785Z,1.73
2022-08-03T12:14:36.755Z,1.30
2022-08-03T12:16:38.144Z,1.20
2022-08-03T12:19:06.899Z,1.33
2022-08-03T12:21:33.720Z,1.60
2022-08-03T12:24:04.662Z,1.42
2022-08-03T12:26:54.519Z,1.40
2022-08-03T12:29:26.317Z,1.20
2022-08-03T12:31:53.233Z,1.20
2022-08-03T12:34:19.814Z,1.27
2022-08-03T12:36:54.479Z,1.13
2022-08-03T12:39:27.573Z,1.60
2022-08-03T12:41:55.358Z,1.42
2022-08-03T12:44:32.669Z,1.25
2022-08-03T12:47:00.366Z,1.30
2022-08-03T12:49:28.277Z,1.17
2022-08-03T12:51:54.937Z,1.15
2022-08-03T12:54:26.510Z,1.23
2022-08-03T12:56:59.547Z,1.80
2022-08-03T12:59:35.457Z,1.70
2022-08-03T13:02:16.274Z,1.92
2022-08-03T13:04:46.362Z,1.52
2022-08-03T13:07:14.457Z,3.45
2022-08-03T13:09:55.289Z,2.30
2022-08-03T13:12:24.597Z,4.63
2022-08-03T13:14:55.065Z,6.50
2022-08-03T13:17:21.995Z,2.90
2022-08-03T13:19:49.752Z,2.95
2022-08-03T13:22:20.152Z,4.97
2022-08-03T13:28:01.432Z,1.50
2022-08-03T13:30:01.582Z,2.22
2022-08-03T13:32:28.233Z,3.42
2022-08-03T13:34:54.798Z,1.92
2022-08-03T13:37:21.744Z,2.05
2022-08-03T13:39:59.386Z,1.67
2022-08-03T13:42:32.143Z,2.53
2022-08-03T13:44:59.967Z,1.33
2022-08-03T13:47:27.567Z,1.20
2022-08-03T13:50:00.802Z,0.95
2022-08-03T13:52:33.762Z,1.48
2022-08-03T13:55:01.492Z,1.55
2022-08-03T13:58:04.252Z,1.45
2022-08-03T14:00:28.232Z,1.20
2022-08-03T14:03:06.664Z,1.50
2022-08-03T14:08:06.842Z,1.20
2022-08-03T14:10:38.487Z,1.38
2022-08-03T14:13:05.953Z,1.13
2022-08-03T14:15:37.488Z,1.30
2022-08-03T14:18:12.852Z,1.45
2022-08-03T14:20:49.125Z,1.35
2022-08-03T14:23:18.969Z,1.40
2022-08-03T14:25:50.233Z,1.60
2022-08-03T14:28:18.829Z,1.02
2022-08-03T14:30:45.711Z,1.23
2022-08-03T14:33:12.342Z,1.30
2022-08-03T14:35:38.938Z,1.42
2022-08-03T14:38:05.699Z,1.55
2022-08-03T14:40:32.538Z,1.60
2022-08-03T14:42:59.203Z,1.13
2022-08-03T14:45:25.787Z,1.58
2022-08-03T14:50:10.403Z,1.48
2022-08-03T14:50:43.256Z,1.33
2022-08-03T14:53:12.448Z,1.40
2022-08-03T14:55:50.847Z,1.48
2022-08-03T14:58:21.133Z,1.63
2022-08-03T15:00:49.545Z,1.30
2022-08-03T15:03:20.374Z,1.33
2022-08-03T15:05:47.278Z,1.33
2022-08-03T15:08:13.905Z,1.20
2022-08-03T15:10:45.461Z,1.40
2022-08-03T15:13:13.604Z,1.30
2022-08-03T15:15:41.147Z,1.50
2022-08-03T15:18:07.985Z,1.33
2022-08-03T15:20:50.157Z,1.52
2022-08-03T15:23:17.359Z,1.38
2022-08-03T15:26:27.884Z,1.23
2022-08-03T15:28:32.301Z,1.20
2022-08-03T15:30:58.952Z,1.17
2022-08-03T15:33:25.617Z,1.30
2022-08-03T15:35:53.089Z,1.08
2022-08-03T15:38:22.982Z,1.40
2022-08-03T15:40:54.675Z,1.30
2022-08-03T15:43:22.779Z,1.60
2022-08-03T15:45:54.579Z,1.33
2022-08-03T15:48:36.380Z,1.70
2022-08-03T15:51:04.025Z,1.30
2022-08-03T15:53:30.721Z,1.17
2022-08-03T15:55:57.348Z,1.50
2022-08-03T15:59:03.204Z,1.30
2022-08-03T16:01:14.349Z,1.88
2022-08-03T16:03:44.360Z,1.45
2022-08-03T16:06:11.142Z,1.20
2022-08-03T16:08:37.747Z,1.30
2022-08-03T16:11:04.513Z,1.30
2022-08-03T16:14:13.460Z,1.30
2022-08-03T16:16:17.704Z,1.35
2022-08-03T16:18:44.279Z,1.23
2022-08-03T16:21:10.938Z,1.40
2022-08-03T16:23:47.097Z,1.50
2022-08-03T16:26:14.625Z,1.20
2022-08-03T16:28:41.501Z,1.50
2022-08-03T16:31:09.168Z,1.27
2022-08-03T16:33:36.249Z,1.38
2022-08-03T16:36:03.552Z,1.30
2022-08-03T16:38:30.575Z,2.83
2022-08-03T16:40:57.253Z,1.40
2022-08-03T16:43:24.667Z,1.13
2022-08-03T16:45:51.667Z,2.35
2022-08-03T16:48:18.790Z,1.30
2022-08-03T16:50:46.107Z,1.10
2022-08-03T16:53:16.788Z,1.50
2022-08-03T16:55:52.372Z,1.35
2022-08-03T16:58:41.359Z,1.25
2022-08-03T17:01:22.177Z,1.30
2022-08-03T17:04:03.096Z,1.67
2022-08-03T17:06:34.529Z,1.20
2022-08-03T17:09:03.587Z,1.58
2022-08-03T17:11:35.197Z,1.88
2022-08-03T17:14:07.768Z,1.20
2022-08-03T17:16:36.249Z,1.33
2022-08-03T17:19:06.726Z,1.20
2022-08-03T17:21:37.710Z,1.13
2022-08-03T17:24:19.787Z,1.10
2022-08-03T17:26:50.077Z,1.10
2022-08-03T17:29:22.946Z,1.05
2022-08-03T17:31:53.074Z,1.20
2022-08-03T17:34:20.828Z,1.20
2022-08-03T17:37:12.031Z,1.38
2022-08-03T17:39:59.829Z,1.20
2022-08-03T17:42:31.163Z,1.20
2022-08-03T17:45:02.585Z,1.30
2022-08-03T17:47:41.149Z,1.60
2022-08-03T17:50:25.050Z,1.30
2022-08-03T17:53:07.223Z,1.20
2022-08-03T17:55:55.777Z,1.05
2022-08-03T17:58:39.616Z,1.10
2022-08-03T18:02:00.846Z,1.30
2022-08-03T18:06:58.559Z,1.20
2022-08-03T18:10:03.668Z,1.20
2022-08-03T18:12:26.664Z,1.20
2022-08-03T18:15:08.388Z,1.30
2022-08-03T18:17:55.178Z,1.05
2022-08-03T18:20:34.627Z,1.60
2022-08-03T18:23:05.870Z,1.40
2022-08-03T18:25:44.873Z,1.40
2022-08-03T18:28:18.902Z,1.25
2022-08-03T18:30:53.471Z,1.40
2022-08-03T18:34:19.088Z,1.58
2022-08-03T18:36:21.549Z,1.30
2022-08-03T18:38:53.911Z,1.50
2022-08-03T18:41:32.335Z,2.00
2022-08-03T18:44:08.104Z,2.20
2022-08-03T18:46:52.233Z,1.88
2022-08-03T18:49:25.558Z,1.60
2022-08-03T18:52:17.958Z,2.15
2022-08-03T18:55:02.490Z,1.92
2022-08-03T18:57:46.601Z,1.85
2022-08-03T19:00:24.552Z,2.00
2022-08-03T19:03:20.160Z,2.22
2022-08-03T19:06:15.936Z,2.40
2022-08-03T19:08:54.227Z,2.10
2022-08-03T19:12:11.184Z,2.30
2022-08-03T19:14:28.765Z,2.10
2022-08-03T19:17:08.589Z,2.50
2022-08-03T19:19:44.187Z,2.03
2022-08-03T19:22:15.818Z,2.72
2022-08-03T19:25:02.329Z,2.17
2022-08-03T19:27:31.210Z,2.30
2022-08-03T19:30:06.893Z,2.60
2022-08-03T19:32:40.991Z,2.33
2022-08-03T19:35:18.980Z,2.05
2022-08-03T19:37:46.599Z,2.47
2022-08-03T19:40:13.168Z,1.77
2022-08-03T19:42:44.570Z,1.90
2022-08-03T19:45:14.103Z,1.90
2022-08-03T19:47:56.519Z,2.20
2022-08-03T19:50:24.476Z,1.75
2022-08-03T19:52:52.875Z,2.55
2022-08-03T19:55:19.885Z,2.20
2022-08-03T19:57:49.267Z,2.40
2022-08-03T20:00:38.255Z,2.15
2022-08-03T20:03:06.666Z,2.47
2022-08-03T20:05:52.263Z,2.10
2022-08-03T20:08:21.879Z,2.00
2022-08-03T20:10:49.342Z,2.22
2022-08-03T20:13:20.049Z,4.68
2022-08-03T20:15:46.922Z,3.75
2022-08-03T20:18:16.854Z,4.15
2022-08-03T20:20:48.023Z,3.72
2022-08-03T20:23:18.596Z,3.80
2022-08-03T20:25:57.280Z,4.15
2022-08-03T20:28:50.519Z,4.18
2022-08-03T20:31:19.279Z,3.28
2022-08-03T20:33:49.288Z,3.85
2022-08-03T20:36:18.114Z,3.75
2022-08-03T20:38:47.700Z,3.30
2022-08-03T20:41:16.249Z,3.70
2022-08-03T20:43:43.345Z,4.72
2022-08-03T20:46:33.846Z,4.55
2022-08-03T20:51:53.182Z,3.72
2022-08-03T20:54:30.853Z,3.20
2022-08-03T20:57:03.589Z,2.90
2022-08-03T20:59:47.333Z,2.65
2022-08-03T21:02:19.838Z,2.80
2022-08-03T21:04:56.144Z,2.55
2022-08-03T21:07:24.442Z,2.67
2022-08-03T21:10:15.364Z,2.55
2022-08-03T21:13:04.521Z,2.90
2022-08-03T21:13:13.135Z,3.50
2022-08-03T21:16:02.401Z,3.03
2022-08-03T21:18:32.264Z,3.20
2022-08-03T21:21:01.093Z,2.95
2022-08-03T21:23:34.981Z,3.15
2022-08-03T21:26:12.956Z,2.70
2022-08-03T21:28:39.938Z,2.80
2022-08-03T21:31:06.757Z,3.35
2022-08-03T21:33:33.982Z,3.30
2022-08-03T21:36:02.789Z,3.00
2022-08-03T21:38:30.768Z,2.72
2022-08-03T21:40:57.626Z,2.78
2022-08-03T21:43:24.311Z,3.10
2022-08-03T21:45:58.952Z,2.25
2022-08-03T21:48:28.250Z,2.90
2022-08-03T21:50:55.010Z,2.67
2022-08-03T21:53:25.677Z,2.67
2022-08-03T21:56:16.913Z,2.55
2022-08-03T21:58:53.369Z,3.00
2022-08-03T22:01:23.841Z,2.47
2022-08-03T22:03:54.281Z,2.60
2022-08-03T22:06:27.126Z,3.08
2022-08-03T22:08:54.467Z,2.75
2022-08-03T22:11:21.597Z,2.42
2022-08-03T22:13:48.361Z,2.72
2022-08-03T22:16:16.160Z,2.40
2022-08-03T22:18:44.953Z,2.40
2022-08-03T22:21:14.989Z,2.53
2022-08-03T22:23:48.131Z,2.85
2022-08-03T22:26:35.227Z,2.42
2022-08-03T22:29:07.503Z,3.05
2022-08-03T22:31:57.434Z,2.95
2022-08-03T22:34:27.366Z,3.00
2022-08-03T22:36:56.551Z,2.50
2022-08-03T22:39:28.048Z,3.03
2022-08-03T22:41:57.500Z,2.63
2022-08-03T22:44:24.562Z,3.10
2022-08-03T22:46:51.938Z,2.70
2022-08-03T22:49:19.617Z,3.13
2022-08-03T22:51:47.347Z,2.88
2022-08-03T22:54:14.576Z,2.97
2022-08-03T22:56:41.909Z,2.95
2022-08-03T22:59:41.232Z,2.90
2022-08-03T23:02:01.476Z,2.90
2022-08-03T23:04:44.014Z,2.95
2022-08-03T23:07:15.122Z,2.75
2022-08-03T23:12:14.917Z,3.50
2022-08-03T23:14:44.656Z,3.63
2022-08-03T23:17:12.281Z,4.07
2022-08-03T23:19:44.773Z,2.75
2022-08-03T23:22:29.329Z,3.53
2022-08-03T23:24:57.740Z,2.90
2022-08-03T23:27:24.512Z,3.20
2022-08-03T23:29:52.191Z,4.95
2022-08-03T23:32:21.026Z,5.25
2022-08-03T23:35:08.650Z,8.82
2022-08-03T23:38:04.258Z,3.30
2022-08-03T23:40:25.744Z,2.95
2022-08-03T23:42:52.828Z,2.88
2022-08-03T23:45:20.801Z,2.40
2022-08-03T23:47:50.220Z,3.17
2022-08-03T23:50:18.586Z,2.40
2022-08-03T23:52:47.925Z,4.30
2022-08-03T23:55:26.030Z,2.50
2022-08-03T23:58:00.581Z,2.25
